Main page
METAR-TAF:

METAR-TAF

Airports :

Perm International Airport

Perm, Russia

latitude: 58-00N, longitude: 056-15E, elevation: 170 m

Current weather observation

The report was made 27 minutes ago, at 16:00 UTC
Wind 6 kt from the West
Temperature 17°C
Humidity 55%
Pressure 1019 hPa
Visibility 10 km or more
no clouds below 1500 m and no cumulonimbus

METAR: USPP 281600Z 26003MPS CAVOK 17/08 Q1019 R21/090060 NOSIG RMK QFE754

Time: 21:27 (16:27 UTC)

Forecast

The report was made 2 hours and 31 minutes ago, at 13:56 UTC
Forecast valid from 28 at 15 UTC to 29 at 15 UTC
Wind 6 kt from the West/Northwest with gusts up to 17 kt
Visibility 10 km or more
no clouds below 1500 m and no cumulonimbus

TAF: USPP 281356Z 2815/2915 29003G09MPS CAVOK

Weather observations and forecasts of more than 4000 airports (METAR and TAF reports).

The available stations are represented by yellow and red dots on the map.

Hover mouse over dot to see the name of the station.

Then click to see weather observations and forecasts.

To change the map : click on the green buttons with a black cross to zoom in, on the green button with a dash to zoom out, or on the green arrows for adjacent maps.


METAR-TAF: